Time,TemperatureF,DewpointF,PressureIn,WindDirection,WindDirectionDegrees,WindSpeedMPH,WindSpeedGustMPH,Humidity,HourlyPrecipIn,Conditions,Clouds,dailyrainin,SolarRadiationWatts/m^2,SoftwareType,DateUTC
2013-01-30 00:03:00,37.4,35.6,29.59,NW,317,9.0,9.0,93,0.01,,---,0.00,0.00,VWS V14.01,2013-01-30 06:03:00,
2013-01-30 00:08:00,37.3,35.5,29.58,North,355,4.0,10.0,93,0.01,,---,0.00,0.00,VWS V14.01,2013-01-30 06:08:00,
2013-01-30 00:13:00,37.3,35.5,29.58,NE,35,3.0,10.0,93,0.02,,---,0.01,0.00,VWS V14.01,2013-01-30 06:13:00,
2013-01-30 00:18:00,37.2,35.4,29.57,North,5,4.0,9.0,93,0.02,,---,0.01,0.00,VWS V14.01,2013-01-30 06:18:00,
2013-01-30 00:23:00,37.1,35.3,29.57,NNW,342,4.0,12.0,93,0.02,,---,0.01,0.00,VWS V14.01,2013-01-30 06:23:00,
2013-01-30 00:28:00,37.1,35.3,29.56,NW,325,3.0,11.0,93,0.02,,---,0.01,0.00,VWS V14.01,2013-01-30 06:28:00,
2013-01-30 00:33:00,37.0,35.2,29.57,NW,321,2.0,4.0,93,0.02,,---,0.01,0.00,VWS V14.01,2013-01-30 06:33:00,
2013-01-30 00:38:00,37.0,35.2,29.58,NNW,333,2.0,4.0,93,0.02,,---,0.01,0.00,VWS V14.01,2013-01-30 06:38:00,
2013-01-30 00:43:00,37.0,35.2,29.59,NW,307,4.0,6.0,93,0.02,,---,0.01,0.00,VWS V14.01,2013-01-30 06:43:00,
2013-01-30 00:48:00,37.0,35.2,29.59,NNW,329,0.0,4.0,93,0.02,,---,0.01,0.00,VWS V14.01,2013-01-30 06:48:00,
2013-01-30 00:53:00,37.0,35.2,29.60,NNW,330,0.0,0.0,93,0.02,,---,0.01,0.00,VWS V14.01,2013-01-30 06:53:00,
2013-01-30 00:58:00,37.0,35.2,29.58,North,360,0.0,6.0,93,0.03,,---,0.03,0.00,VWS V14.01,2013-01-30 06:58:00,
2013-01-30 01:03:00,37.0,35.2,29.58,NNW,336,0.0,4.0,93,0.05,,---,0.05,0.00,VWS V14.01,2013-01-30 07:03:00,
2013-01-30 01:08:00,36.9,35.1,29.60,NNW,336,0.0,1.0,93,0.08,,---,0.08,0.00,VWS V14.01,2013-01-30 07:08:00,
2013-01-30 01:13:00,36.9,35.1,29.60,NW,307,0.0,5.0,93,0.09,,---,0.10,0.00,VWS V14.01,2013-01-30 07:13:00,
2013-01-30 01:18:00,36.9,35.1,29.59,NW,326,0.0,4.0,93,0.11,,---,0.12,0.00,VWS V14.01,2013-01-30 07:18:00,
2013-01-30 01:23:00,36.8,35.0,29.59,NW,326,0.0,0.0,93,0.12,,---,0.13,0.00,VWS V14.01,2013-01-30 07:23:00,
2013-01-30 01:28:00,36.8,35.0,29.59,NW,325,0.0,0.0,93,0.13,,---,0.14,0.00,VWS V14.01,2013-01-30 07:28:00,
2013-01-30 01:33:00,36.8,35.0,29.60,NW,325,0.0,0.0,93,0.14,,---,0.15,0.00,VWS V14.01,2013-01-30 07:33:00,
2013-01-30 01:38:00,36.8,35.0,29.61,NW,325,0.0,0.0,93,0.15,,---,0.16,0.00,VWS V14.01,2013-01-30 07:38:00,
2013-01-30 01:43:00,36.8,35.0,29.60,NW,325,0.0,0.0,93,0.15,,---,0.16,0.00,VWS V14.01,2013-01-30 07:43:00,
2013-01-30 01:48:00,36.8,35.0,29.60,NW,325,1.0,3.0,93,0.15,,---,0.16,0.00,VWS V14.01,2013-01-30 07:48:00,
2013-01-30 01:53:00,36.8,35.0,29.60,NW,325,0.0,2.0,93,0.15,,---,0.16,0.00,VWS V14.01,2013-01-30 07:53:00,
2013-01-30 01:58:00,36.8,35.0,29.60,NW,325,0.0,0.0,93,0.15,,---,0.17,0.00,VWS V14.01,2013-01-30 07:58:00,
2013-01-30 02:03:00,36.7,34.9,29.59,NNW,331,1.0,5.0,93,0.13,,---,0.17,0.00,VWS V14.01,2013-01-30 08:03:00,
2013-01-30 02:08:00,36.7,34.9,29.58,NNW,332,0.0,0.0,93,0.10,,---,0.17,0.00,VWS V14.01,2013-01-30 08:08:00,
2013-01-30 02:13:00,36.6,34.8,29.54,ENE,67,5.0,5.0,93,0.08,,---,0.17,0.00,VWS V14.01,2013-01-30 08:13:00,
2013-01-30 02:18:00,36.5,34.7,29.52,ENE,72,7.0,9.0,93,0.06,,---,0.17,0.00,VWS V14.01,2013-01-30 08:18:00,
2013-01-30 02:23:00,36.4,34.6,29.50,ENE,57,5.0,12.0,93,0.04,,---,0.17,0.00,VWS V14.01,2013-01-30 08:23:00,
2013-01-30 02:28:00,36.3,34.5,29.51,ENE,62,0.0,7.0,93,0.03,,---,0.17,0.00,VWS V14.01,2013-01-30 08:28:00,
2013-01-30 02:33:00,36.4,34.6,29.51,NE,42,7.0,9.0,93,0.04,,---,0.18,0.00,VWS V14.01,2013-01-30 08:33:00,
2013-01-30 02:38:00,36.4,34.6,29.50,ENE,64,1.0,6.0,93,0.03,,---,0.18,0.00,VWS V14.01,2013-01-30 08:38:00,
2013-01-30 02:43:00,36.4,34.6,29.51,NE,36,0.0,6.0,93,0.02,,---,0.18,0.00,VWS V14.01,2013-01-30 08:43:00,
2013-01-30 02:48:00,36.5,34.7,29.50,NNW,333,5.0,6.0,93,0.02,,---,0.18,0.00,VWS V14.01,2013-01-30 08:48:00,
2013-01-30 02:53:00,36.5,34.7,29.51,North,360,0.0,0.0,93,0.02,,---,0.18,0.00,VWS V14.01,2013-01-30 08:53:00,
2013-01-30 02:58:00,36.6,34.8,29.52,North,360,0.0,0.0,93,0.01,,---,0.18,0.00,VWS V14.01,2013-01-30 08:58:00,
2013-01-30 03:03:00,36.6,34.8,29.52,North,360,0.0,1.0,93,0.01,,---,0.18,0.00,VWS V14.01,2013-01-30 09:03:00,
2013-01-30 03:08:00,36.6,34.8,29.50,NNW,346,1.0,3.0,93,0.01,,---,0.18,0.00,VWS V14.01,2013-01-30 09:08:00,
2013-01-30 03:13:00,36.6,34.8,29.50,NNW,347,0.0,0.0,93,0.01,,---,0.18,0.00,VWS V14.01,2013-01-30 09:13:00,
2013-01-30 03:18:00,36.6,34.8,29.50,NNW,348,0.0,2.0,93,0.01,,---,0.18,0.00,VWS V14.01,2013-01-30 09:18:00,
2013-01-30 03:23:00,36.6,34.8,29.49,NNE,26,2.0,5.0,93,0.01,,---,0.18,0.00,VWS V14.01,2013-01-30 09:23:00,
2013-01-30 03:28:00,36.6,34.8,29.47,NNE,19,4.0,4.0,93,0.01,,---,0.18,0.00,VWS V14.01,2013-01-30 09:28:00,
2013-01-30 03:33:00,36.6,34.8,29.48,NNE,26,3.0,3.0,93,0.00,,---,0.18,0.00,VWS V14.01,2013-01-30 09:33:00,
2013-01-30 03:38:00,36.5,34.7,29.49,NE,36,0.0,4.0,93,0.00,,---,0.18,0.00,VWS V14.01,2013-01-30 09:38:00,
2013-01-30 03:43:00,36.5,34.7,29.47,NE,38,0.0,5.0,93,0.00,,---,0.18,0.00,VWS V14.01,2013-01-30 09:43:00,
2013-01-30 03:48:00,36.5,34.7,29.44,NE,38,0.0,4.0,93,0.00,,---,0.18,0.00,VWS V14.01,2013-01-30 09:48:00,
2013-01-30 03:53:00,36.5,34.7,29.46,NE,37,0.0,2.0,93,0.00,,---,0.18,0.00,VWS V14.01,2013-01-30 09:53:00,
2013-01-30 03:58:00,36.5,34.7,29.47,NE,38,0.0,0.0,93,0.00,,---,0.18,0.00,VWS V14.01,2013-01-30 09:58:00,
2013-01-30 04:03:00,36.5,34.7,29.47,NE,47,0.0,0.0,93,0.00,,---,0.18,0.00,VWS V14.01,2013-01-30 10:03:00,
2013-01-30 04:08:00,36.5,34.7,29.47,NE,47,0.0,0.0,93,0.00,,---,0.18,0.00,VWS V14.01,2013-01-30 10:08:00,
2013-01-30 04:13:00,36.5,34.7,29.48,NE,46,0.0,2.0,93,0.00,,---,0.18,0.00,VWS V14.01,2013-01-30 10:13:00,
2013-01-30 04:18:00,36.6,34.8,29.48,NE,47,0.0,0.0,93,0.00,,---,0.18,0.00,VWS V14.01,2013-01-30 10:18:00,
2013-01-30 04:23:00,36.6,34.8,29.48,NE,47,0.0,0.0,93,0.00,,---,0.18,0.00,VWS V14.01,2013-01-30 10:23:00,
2013-01-30 04:27:00,36.6,34.8,29.47,NE,47,0.0,0.0,93,0.00,,---,0.18,0.00,VWS V14.01,2013-01-30 10:27:00,
2013-01-30 04:32:00,36.6,34.8,29.47,NE,47,0.0,0.0,93,0.00,,---,0.18,0.00,VWS V14.01,2013-01-30 10:32:00,
2013-01-30 04:38:00,36.6,34.8,29.46,NE,46,0.0,0.0,93,0.00,,---,0.18,0.00,VWS V14.01,2013-01-30 10:38:00,
2013-01-30 04:43:00,36.7,34.9,29.46,NE,46,0.0,0.0,93,0.00,,---,0.18,0.00,VWS V14.01,2013-01-30 10:43:00,
2013-01-30 04:48:00,36.6,34.8,29.45,NE,46,0.0,2.0,93,0.00,,---,0.18,0.00,VWS V14.01,2013-01-30 10:48:00,
2013-01-30 04:53:00,36.6,34.8,29.45,NE,47,0.0,0.0,93,0.00,,---,0.18,0.00,VWS V14.01,2013-01-30 10:53:00,
2013-01-30 04:58:00,36.6,34.8,29.45,NE,46,0.0,0.0,93,0.00,,---,0.18,0.00,VWS V14.01,2013-01-30 10:58:00,
2013-01-30 05:03:00,36.6,34.8,29.45,NE,47,0.0,0.0,93,0.00,,---,0.18,0.00,VWS V14.01,2013-01-30 11:03:00,
2013-01-30 05:07:00,36.6,34.8,29.45,NE,47,1.0,3.0,93,0.00,,---,0.18,0.00,VWS V14.01,2013-01-30 11:07:00,
2013-01-30 05:12:00,36.5,34.7,29.45,NE,46,0.0,0.0,93,0.00,,---,0.18,0.00,VWS V14.01,2013-01-30 11:12:00,
2013-01-30 05:17:00,36.5,34.7,29.44,NE,46,0.0,0.0,93,0.00,,---,0.18,0.00,VWS V14.01,2013-01-30 11:17:00,
2013-01-30 05:22:00,36.5,34.7,29.44,NE,47,0.0,0.0,93,0.00,,---,0.18,0.00,VWS V14.01,2013-01-30 11:22:00,
2013-01-30 05:27:00,36.6,34.8,29.44,NE,47,0.0,0.0,93,0.00,,---,0.18,0.00,VWS V14.01,2013-01-30 11:27:00,
2013-01-30 05:32:00,36.6,34.8,29.46,NE,47,0.0,0.0,93,0.01,,---,0.19,0.00,VWS V14.01,2013-01-30 11:32:00,
2013-01-30 05:37:00,36.6,34.8,29.49,WSW,254,4.0,9.0,93,0.03,,---,0.21,0.00,VWS V14.01,2013-01-30 11:37:00,
2013-01-30 05:42:00,36.7,34.9,29.49,WSW,256,13.0,13.0,93,0.04,,---,0.22,0.00,VWS V14.01,2013-01-30 11:42:00,
2013-01-30 05:47:00,36.6,34.8,29.49,West,261,5.0,10.0,93,0.04,,---,0.22,0.00,VWS V14.01,2013-01-30 11:47:00,
2013-01-30 05:52:00,36.4,34.6,29.50,WSW,250,9.0,14.0,93,0.04,,---,0.22,0.00,VWS V14.01,2013-01-30 11:52:00,
2013-01-30 05:57:00,36.4,34.6,29.51,WSW,250,7.0,11.0,93,0.04,,---,0.22,0.00,VWS V14.01,2013-01-30 11:57:00,
2013-01-30 06:02:00,36.2,34.4,29.48,West,269,3.0,7.0,93,0.05,,---,0.23,0.00,VWS V14.01,2013-01-30 12:02:00,
2013-01-30 06:07:00,36.2,34.4,29.50,West,260,8.0,16.0,93,0.05,,---,0.23,0.00,VWS V14.01,2013-01-30 12:07:00,
2013-01-30 06:12:00,36.1,34.3,29.49,West,275,7.0,8.0,93,0.05,,---,0.23,0.00,VWS V14.01,2013-01-30 12:12:00,
2013-01-30 06:17:00,36.0,34.2,29.50,West,261,8.0,13.0,93,0.05,,---,0.23,0.00,VWS V14.01,2013-01-30 12:17:00,
2013-01-30 06:22:00,36.0,34.2,29.51,West,264,3.0,9.0,93,0.05,,---,0.23,0.00,VWS V14.01,2013-01-30 12:22:00,
2013-01-30 06:27:00,35.9,34.1,29.51,West,267,7.0,14.0,93,0.05,,---,0.23,0.00,VWS V14.01,2013-01-30 12:27:00,
2013-01-30 06:32:00,35.9,34.1,29.52,West,277,9.0,11.0,93,0.04,,---,0.23,0.00,VWS V14.01,2013-01-30 12:32:00,
2013-01-30 06:37:00,35.7,33.9,29.51,West,265,3.0,11.0,93,0.03,,---,0.23,0.00,VWS V14.01,2013-01-30 12:37:00,
2013-01-30 06:42:00,35.6,33.8,29.51,NW,325,9.0,13.0,93,0.01,,---,0.23,0.00,VWS V14.01,2013-01-30 12:42:00,
2013-01-30 06:47:00,35.4,33.6,29.51,West,269,5.0,11.0,93,0.01,,---,0.23,0.00,VWS V14.01,2013-01-30 12:47:00,
2013-01-30 06:52:00,35.2,33.4,29.51,West,265,5.0,7.0,93,0.01,,---,0.23,0.00,VWS V14.01,2013-01-30 12:52:00,
2013-01-30 06:57:00,35.1,33.3,29.52,West,281,4.0,7.0,93,0.01,,---,0.23,0.00,VWS V14.01,2013-01-30 12:57:00,
2013-01-30 07:02:00,35.0,33.2,29.53,NW,310,3.0,10.0,93,0.00,,---,0.23,0.00,VWS V14.01,2013-01-30 13:02:00,
2013-01-30 07:07:00,34.8,33.0,29.52,WNW,290,4.0,4.0,93,0.00,,---,0.23,0.00,VWS V14.01,2013-01-30 13:07:00,
2013-01-30 07:12:00,34.7,32.9,29.53,West,273,5.0,10.0,93,0.00,,---,0.23,0.00,VWS V14.01,2013-01-30 13:12:00,
2013-01-30 07:17:00,34.6,32.8,29.53,WNW,295,4.0,5.0,93,0.00,,---,0.23,0.00,VWS V14.01,2013-01-30 13:17:00,
2013-01-30 07:22:00,34.4,32.6,29.53,NW,306,0.0,13.0,93,0.00,,---,0.23,0.00,VWS V14.01,2013-01-30 13:22:00,
2013-01-30 07:27:00,34.4,32.6,29.52,WNW,299,7.0,8.0,93,0.00,,---,0.23,5.00,VWS V14.01,2013-01-30 13:27:00,
2013-01-30 07:32:00,34.4,32.6,29.53,WNW,284,1.0,8.0,93,0.00,,---,0.23,7.00,VWS V14.01,2013-01-30 13:32:00,
2013-01-30 07:37:00,34.4,32.6,29.53,West,273,5.0,11.0,93,0.00,,---,0.23,9.00,VWS V14.01,2013-01-30 13:37:00,
2013-01-30 07:42:00,34.4,32.6,29.53,WNW,300,0.0,10.0,93,0.00,,---,0.23,9.00,VWS V14.01,2013-01-30 13:42:00,
2013-01-30 07:47:00,34.4,32.6,29.53,WNW,288,5.0,9.0,93,0.00,,---,0.23,9.00,VWS V14.01,2013-01-30 13:47:00,
2013-01-30 07:52:00,34.3,32.5,29.52,WNW,303,5.0,5.0,93,0.00,,---,0.23,14.00,VWS V14.01,2013-01-30 13:52:00,
2013-01-30 07:57:00,34.3,32.5,29.52,NW,310,3.0,5.0,93,0.00,,---,0.23,16.00,VWS V14.01,2013-01-30 13:57:00,
2013-01-30 08:02:00,34.3,32.5,29.52,NW,318,4.0,5.0,93,0.00,,---,0.23,19.00,VWS V14.01,2013-01-30 14:02:00,
2013-01-30 08:07:00,34.3,32.5,29.54,NW,311,0.0,0.0,93,0.00,,---,0.23,18.00,VWS V14.01,2013-01-30 14:07:00,
2013-01-30 08:12:00,34.4,32.6,29.54,WNW,291,2.0,6.0,93,0.00,,---,0.23,26.00,VWS V14.01,2013-01-30 14:12:00,
2013-01-30 08:17:00,34.4,32.6,29.53,West,280,2.0,6.0,93,0.00,,---,0.23,25.00,VWS V14.01,2013-01-30 14:17:00,
2013-01-30 08:22:00,34.4,32.6,29.54,WNW,287,0.0,4.0,93,0.00,,---,0.23,18.00,VWS V14.01,2013-01-30 14:22:00,
2013-01-30 08:27:00,34.4,32.6,29.54,West,277,5.0,6.0,93,0.00,,---,0.23,18.00,VWS V14.01,2013-01-30 14:27:00,
2013-01-30 08:32:00,34.2,32.4,29.55,WNW,287,3.0,6.0,93,0.00,,---,0.23,23.00,VWS V14.01,2013-01-30 14:32:00,
2013-01-30 08:37:00,34.0,32.2,29.55,West,272,5.0,5.0,93,0.00,,---,0.23,18.00,VWS V14.01,2013-01-30 14:37:00,
2013-01-30 08:42:00,33.7,31.9,29.55,WNW,283,3.0,12.0,93,0.00,,---,0.23,19.00,VWS V14.01,2013-01-30 14:42:00,
2013-01-30 08:47:00,33.4,31.6,29.55,WNW,294,4.0,11.0,93,0.00,,---,0.23,21.00,VWS V14.01,2013-01-30 14:47:00,
2013-01-30 08:52:00,33.2,31.4,29.56,WNW,284,3.0,7.0,93,0.00,,---,0.23,25.00,VWS V14.01,2013-01-30 14:52:00,
2013-01-30 08:57:00,33.0,31.2,29.57,West,279,2.0,6.0,93,0.00,,---,0.23,23.00,VWS V14.01,2013-01-30 14:57:00,
2013-01-30 09:02:00,32.8,31.0,29.58,West,269,6.0,10.0,93,0.00,,---,0.23,23.00,VWS V14.01,2013-01-30 15:02:00,
2013-01-30 09:07:00,32.5,30.7,29.58,WNW,291,4.0,13.0,93,0.00,,---,0.23,23.00,VWS V14.01,2013-01-30 15:07:00,
2013-01-30 09:12:00,32.3,30.2,29.59,West,280,6.0,6.0,92,0.00,,---,0.23,23.00,VWS V14.01,2013-01-30 15:12:00,
2013-01-30 09:17:00,32.2,30.1,29.59,WNW,285,4.0,14.0,92,0.00,,---,0.23,19.00,VWS V14.01,2013-01-30 15:17:00,
2013-01-30 09:22:00,32.2,30.1,29.59,West,279,6.0,10.0,92,0.00,,---,0.23,21.00,VWS V14.01,2013-01-30 15:22:00,
2013-01-30 09:27:00,32.1,30.0,29.59,WNW,293,3.0,13.0,92,0.00,,---,0.23,21.00,VWS V14.01,2013-01-30 15:27:00,
2013-01-30 09:32:00,32.1,30.0,29.60,WNW,294,4.0,6.0,92,0.00,,---,0.23,19.00,VWS V14.01,2013-01-30 15:32:00,
2013-01-30 09:37:00,32.1,30.0,29.60,NW,304,6.0,6.0,92,0.00,,---,0.23,23.00,VWS V14.01,2013-01-30 15:37:00,
2013-01-30 09:42:00,32.0,29.9,29.60,WNW,294,5.0,11.0,92,0.00,,---,0.23,28.00,VWS V14.01,2013-01-30 15:42:00,
2013-01-30 09:47:00,31.9,29.8,29.60,WNW,284,4.0,10.0,92,0.00,,---,0.23,26.00,VWS V14.01,2013-01-30 15:47:00,
2013-01-30 09:52:00,31.9,29.8,29.60,WNW,289,5.0,12.0,92,0.00,,---,0.23,30.00,VWS V14.01,2013-01-30 15:52:00,
2013-01-30 09:57:00,31.9,29.6,29.60,WNW,290,5.0,9.0,91,0.00,,---,0.23,28.00,VWS V14.01,2013-01-30 15:57:00,
2013-01-30 10:02:00,31.9,29.6,29.61,NW,311,9.0,9.0,91,0.00,,---,0.23,32.00,VWS V14.01,2013-01-30 16:02:00,
2013-01-30 10:07:00,32.0,29.7,29.61,NW,313,5.0,8.0,91,0.00,,---,0.23,30.00,VWS V14.01,2013-01-30 16:07:00,
2013-01-30 10:12:00,31.9,29.6,29.61,West,268,5.0,6.0,91,0.00,,---,0.23,37.00,VWS V14.01,2013-01-30 16:12:00,
2013-01-30 10:17:00,31.9,29.3,29.61,WNW,298,3.0,7.0,90,0.00,,---,0.23,33.00,VWS V14.01,2013-01-30 16:17:00,
2013-01-30 10:22:00,31.9,29.3,29.61,WNW,294,6.0,10.0,90,0.00,,---,0.23,39.00,VWS V14.01,2013-01-30 16:22:00,
2013-01-30 10:27:00,31.9,29.3,29.61,West,273,5.0,8.0,90,0.00,,---,0.23,37.00,VWS V14.01,2013-01-30 16:27:00,
2013-01-30 10:32:00,32.0,29.4,29.62,WNW,296,3.0,9.0,90,0.00,,---,0.23,33.00,VWS V14.01,2013-01-30 16:32:00,
2013-01-30 10:37:00,31.9,29.0,29.63,NNW,338,6.0,10.0,89,0.00,,---,0.23,28.00,VWS V14.01,2013-01-30 16:37:00,
2013-01-30 10:42:00,31.9,29.0,29.63,NNW,327,5.0,5.0,89,0.00,,---,0.23,40.00,VWS V14.01,2013-01-30 16:42:00,
2013-01-30 10:47:00,31.9,29.0,29.64,West,276,7.0,9.0,89,0.00,,---,0.23,30.00,VWS V14.01,2013-01-30 16:47:00,
2013-01-30 10:52:00,31.9,29.0,29.64,WNW,298,14.0,14.0,89,0.00,,---,0.23,30.00,VWS V14.01,2013-01-30 16:52:00,
2013-01-30 10:57:00,31.9,28.8,29.64,WNW,302,9.0,10.0,88,0.00,,---,0.23,33.00,VWS V14.01,2013-01-30 16:57:00,
2013-01-30 11:02:00,31.9,28.8,29.64,WNW,288,3.0,7.0,88,0.00,,---,0.23,25.00,VWS V14.01,2013-01-30 17:02:00,
2013-01-30 11:07:00,31.9,28.8,29.64,West,273,9.0,14.0,88,0.00,,---,0.23,28.00,VWS V14.01,2013-01-30 17:07:00,
2013-01-30 11:12:00,31.8,28.7,29.64,WNW,302,4.0,8.0,88,0.00,,---,0.23,40.00,VWS V14.01,2013-01-30 17:12:00,
2013-01-30 11:17:00,31.8,28.7,29.64,WNW,290,6.0,6.0,88,0.00,,---,0.23,28.00,VWS V14.01,2013-01-30 17:17:00,
2013-01-30 11:22:00,31.8,28.7,29.65,NW,306,6.0,11.0,88,0.00,,---,0.23,42.00,VWS V14.01,2013-01-30 17:22:00,
2013-01-30 11:27:00,31.6,28.5,29.64,West,276,8.0,10.0,88,0.00,,---,0.23,51.00,VWS V14.01,2013-01-30 17:27:00,
2013-01-30 11:32:00,31.5,28.4,29.65,WNW,291,4.0,9.0,88,0.00,,---,0.23,46.00,VWS V14.01,2013-01-30 17:32:00,
2013-01-30 11:37:00,31.4,28.3,29.65,WNW,284,5.0,13.0,88,0.00,,---,0.23,44.00,VWS V14.01,2013-01-30 17:37:00,
2013-01-30 11:42:00,31.1,28.0,29.65,West,281,5.0,9.0,88,0.00,,---,0.23,67.00,VWS V14.01,2013-01-30 17:42:00,
2013-01-30 11:47:00,30.9,27.8,29.65,WNW,283,4.0,19.0,88,0.00,,---,0.23,70.00,VWS V14.01,2013-01-30 17:47:00,
2013-01-30 11:52:00,30.7,27.6,29.65,NW,305,9.0,15.0,88,0.00,,---,0.23,72.00,VWS V14.01,2013-01-30 17:52:00,
2013-01-30 11:57:00,30.5,27.4,29.65,WNW,296,14.0,15.0,88,0.00,,---,0.23,116.00,VWS V14.01,2013-01-30 17:57:00,
2013-01-30 12:02:00,30.2,27.4,29.66,NW,309,5.0,12.0,89,0.00,,---,0.23,134.00,VWS V14.01,2013-01-30 18:02:00,
2013-01-30 12:07:00,30.0,27.2,29.66,NW,316,11.0,11.0,89,0.00,,---,0.23,171.00,VWS V14.01,2013-01-30 18:07:00,
2013-01-30 12:12:00,29.9,27.1,29.66,WNW,298,10.0,14.0,89,0.00,,---,0.23,158.00,VWS V14.01,2013-01-30 18:12:00,
2013-01-30 12:17:00,29.8,27.0,29.66,WNW,299,10.0,15.0,89,0.00,,---,0.23,88.00,VWS V14.01,2013-01-30 18:17:00,
2013-01-30 12:22:00,29.8,27.0,29.67,West,275,6.0,13.0,89,0.00,,---,0.23,123.00,VWS V14.01,2013-01-30 18:22:00,
2013-01-30 12:27:00,29.8,27.0,29.67,WNW,284,12.0,13.0,89,0.00,,---,0.23,113.00,VWS V14.01,2013-01-30 18:27:00,
2013-01-30 12:32:00,29.8,26.7,29.67,WNW,289,10.0,21.0,88,0.00,,---,0.23,107.00,VWS V14.01,2013-01-30 18:32:00,
2013-01-30 12:37:00,29.7,26.6,29.67,WNW,297,4.0,13.0,88,0.00,,---,0.23,100.00,VWS V14.01,2013-01-30 18:37:00,
2013-01-30 12:42:00,29.6,26.5,29.67,WNW,300,5.0,20.0,88,0.00,,---,0.23,67.00,VWS V14.01,2013-01-30 18:42:00,
2013-01-30 12:47:00,29.4,26.0,29.68,West,280,3.0,13.0,87,0.00,,---,0.23,56.00,VWS V14.01,2013-01-30 18:47:00,
2013-01-30 12:52:00,29.2,25.5,29.68,NW,313,6.0,18.0,86,0.00,,---,0.23,67.00,VWS V14.01,2013-01-30 18:52:00,
2013-01-30 12:57:00,29.0,25.4,29.68,WNW,286,5.0,17.0,86,0.00,,---,0.23,72.00,VWS V14.01,2013-01-30 18:57:00,
2013-01-30 13:02:00,28.9,25.2,29.68,NNW,327,8.0,16.0,86,0.00,,---,0.23,77.00,VWS V14.01,2013-01-30 19:02:00,
2013-01-30 13:07:00,28.8,25.1,29.68,WNW,292,5.0,16.0,86,0.00,,---,0.23,69.00,VWS V14.01,2013-01-30 19:07:00,
2013-01-30 13:12:00,28.7,26.7,29.69,WNW,286,4.0,10.0,92,0.00,,---,0.23,72.00,VWS V14.01,2013-01-30 19:12:00,
2013-01-30 13:17:00,28.8,25.1,29.69,WNW,300,4.0,10.0,86,0.00,,---,0.23,58.00,VWS V14.01,2013-01-30 19:17:00,
2013-01-30 13:22:00,28.8,25.1,29.69,WNW,292,6.0,12.0,86,0.00,,---,0.23,54.00,VWS V14.01,2013-01-30 19:22:00,
2013-01-30 13:27:00,28.8,25.1,29.69,WNW,286,6.0,12.0,86,0.00,,---,0.23,40.00,VWS V14.01,2013-01-30 19:27:00,
2013-01-30 13:32:00,28.8,25.4,29.70,NW,323,6.0,17.0,87,0.00,,---,0.23,83.00,VWS V14.01,2013-01-30 19:32:00,
2013-01-30 13:37:00,28.4,24.8,29.70,WNW,288,4.0,14.0,86,0.00,,---,0.23,221.00,VWS V14.01,2013-01-30 19:37:00,
2013-01-30 13:42:00,28.2,24.6,29.70,WNW,303,10.0,14.0,86,0.00,,---,0.23,209.00,VWS V14.01,2013-01-30 19:42:00,
2013-01-30 13:47:00,28.2,24.6,29.70,West,264,10.0,10.0,86,0.00,,---,0.23,216.00,VWS V14.01,2013-01-30 19:47:00,
2013-01-30 13:52:00,28.3,24.7,29.71,NW,322,4.0,12.0,86,0.00,,---,0.23,171.00,VWS V14.01,2013-01-30 19:52:00,
2013-01-30 13:57:00,28.4,24.5,29.71,NW,307,4.0,12.0,85,0.00,,---,0.23,105.00,VWS V14.01,2013-01-30 19:57:00,
2013-01-30 14:02:00,28.3,24.4,29.71,WNW,291,6.0,7.0,85,0.00,,---,0.23,102.00,VWS V14.01,2013-01-30 20:02:00,
2013-01-30 14:07:00,28.4,24.5,29.71,WNW,285,5.0,11.0,85,0.00,,---,0.23,128.00,VWS V14.01,2013-01-30 20:07:00,
2013-01-30 14:12:00,28.5,24.3,29.71,West,259,4.0,11.0,84,0.00,,---,0.23,81.00,VWS V14.01,2013-01-30 20:12:00,
2013-01-30 14:17:00,28.5,24.3,29.72,NW,306,6.0,13.0,84,0.00,,---,0.23,88.00,VWS V14.01,2013-01-30 20:17:00,
2013-01-30 14:22:00,28.4,23.9,29.72,West,269,9.0,15.0,83,0.00,,---,0.23,77.00,VWS V14.01,2013-01-30 20:22:00,
2013-01-30 14:27:00,28.1,23.3,29.73,West,269,6.0,14.0,82,0.00,,---,0.23,60.00,VWS V14.01,2013-01-30 20:27:00,
2013-01-30 14:32:00,28.0,22.9,29.73,NNW,327,4.0,16.0,81,0.00,,---,0.23,65.00,VWS V14.01,2013-01-30 20:32:00,
2013-01-30 14:37:00,27.9,22.8,29.74,NW,319,6.0,13.0,81,0.00,,---,0.23,74.00,VWS V14.01,2013-01-30 20:37:00,
2013-01-30 14:42:00,28.0,22.9,29.74,WNW,293,5.0,9.0,81,0.00,,---,0.23,51.00,VWS V14.01,2013-01-30 20:42:00,
2013-01-30 14:47:00,28.1,23.0,29.74,North,350,15.0,15.0,81,0.00,,---,0.23,51.00,VWS V14.01,2013-01-30 20:47:00,
2013-01-30 14:52:00,28.1,23.3,29.74,WSW,254,5.0,15.0,82,0.00,,---,0.23,44.00,VWS V14.01,2013-01-30 20:52:00,
2013-01-30 14:57:00,28.3,23.5,29.75,WNW,284,8.0,10.0,82,0.00,,---,0.23,46.00,VWS V14.01,2013-01-30 20:57:00,
2013-01-30 15:02:00,28.1,23.3,29.76,NW,321,3.0,6.0,82,0.00,,---,0.23,63.00,VWS V14.01,2013-01-30 21:02:00,
2013-01-30 15:07:00,28.0,22.9,29.76,NW,320,11.0,12.0,81,0.00,,---,0.23,49.00,VWS V14.01,2013-01-30 21:07:00,
2013-01-30 15:12:00,27.7,22.4,29.76,WNW,294,7.0,20.0,80,0.00,,---,0.23,53.00,VWS V14.01,2013-01-30 21:12:00,
2013-01-30 15:17:00,27.6,22.0,29.77,West,267,12.0,14.0,79,0.00,,---,0.23,62.00,VWS V14.01,2013-01-30 21:17:00,
2013-01-30 15:22:00,27.5,22.1,29.77,WNW,292,5.0,11.0,80,0.00,,---,0.23,44.00,VWS V14.01,2013-01-30 21:22:00,
2013-01-30 15:27:00,27.5,22.1,29.78,WNW,296,2.0,7.0,80,0.00,,---,0.23,33.00,VWS V14.01,2013-01-30 21:27:00,
2013-01-30 15:32:00,27.5,22.1,29.78,West,276,5.0,9.0,80,0.00,,---,0.23,35.00,VWS V14.01,2013-01-30 21:32:00,
2013-01-30 15:37:00,27.5,22.1,29.79,NW,318,10.0,13.0,80,0.00,,---,0.23,35.00,VWS V14.01,2013-01-30 21:37:00,
2013-01-30 15:41:00,27.3,21.7,29.79,WNW,287,4.0,7.0,79,0.00,,---,0.23,25.00,VWS V14.01,2013-01-30 21:41:00,
2013-01-30 15:46:00,27.2,21.6,29.80,NW,309,7.0,9.0,79,0.00,,---,0.23,28.00,VWS V14.01,2013-01-30 21:46:00,
2013-01-30 15:51:00,27.1,21.8,29.80,WNW,286,3.0,9.0,80,0.00,,---,0.23,32.00,VWS V14.01,2013-01-30 21:51:00,
2013-01-30 15:56:00,27.1,21.8,29.80,West,277,5.0,13.0,80,0.00,,---,0.23,16.00,VWS V14.01,2013-01-30 21:56:00,
2013-01-30 16:01:00,27.0,22.0,29.80,West,263,4.0,11.0,81,0.00,,---,0.23,18.00,VWS V14.01,2013-01-30 22:01:00,
2013-01-30 16:06:00,27.0,22.0,29.81,NW,317,4.0,4.0,81,0.00,,---,0.23,19.00,VWS V14.01,2013-01-30 22:06:00,
2013-01-30 16:11:00,26.9,21.6,29.81,West,281,11.0,14.0,80,0.00,,---,0.23,28.00,VWS V14.01,2013-01-30 22:11:00,
2013-01-30 16:16:00,26.8,21.2,29.81,WNW,301,13.0,15.0,79,0.00,,---,0.23,35.00,VWS V14.01,2013-01-30 22:16:00,
2013-01-30 16:21:00,26.7,20.8,29.81,NW,311,6.0,12.0,78,0.00,,---,0.23,32.00,VWS V14.01,2013-01-30 22:21:00,
2013-01-30 16:26:00,26.8,20.9,29.81,West,278,5.0,6.0,78,0.00,,---,0.23,26.00,VWS V14.01,2013-01-30 22:26:00,
2013-01-30 16:31:00,26.9,21.0,29.82,West,267,5.0,5.0,78,0.00,,---,0.23,39.00,VWS V14.01,2013-01-30 22:31:00,
2013-01-30 16:36:00,26.9,21.3,29.82,West,269,7.0,7.0,79,0.00,,---,0.23,30.00,VWS V14.01,2013-01-30 22:36:00,
2013-01-30 16:41:00,27.0,21.4,29.83,WSW,254,4.0,10.0,79,0.00,,---,0.23,33.00,VWS V14.01,2013-01-30 22:41:00,
2013-01-30 16:46:00,27.0,21.4,29.83,WNW,299,10.0,12.0,79,0.00,,---,0.23,23.00,VWS V14.01,2013-01-30 22:46:00,
2013-01-30 16:51:00,27.0,21.1,29.84,WNW,284,3.0,7.0,78,0.00,,---,0.23,19.00,VWS V14.01,2013-01-30 22:51:00,
2013-01-30 16:56:00,27.1,21.2,29.84,WNW,285,4.0,10.0,78,0.00,,---,0.23,19.00,VWS V14.01,2013-01-30 22:56:00,
2013-01-30 17:01:00,27.1,21.2,29.84,WNW,290,4.0,7.0,78,0.00,,---,0.23,16.00,VWS V14.01,2013-01-30 23:01:00,
2013-01-30 17:06:00,27.1,20.9,29.84,West,272,7.0,17.0,77,0.00,,---,0.23,14.00,VWS V14.01,2013-01-30 23:06:00,
2013-01-30 17:11:00,27.0,20.8,29.85,NNW,329,9.0,12.0,77,0.00,,---,0.23,7.00,VWS V14.01,2013-01-30 23:11:00,
2013-01-30 17:16:00,26.9,20.7,29.85,West,273,6.0,10.0,77,0.00,,---,0.23,5.00,VWS V14.01,2013-01-30 23:16:00,
2013-01-30 17:21:00,26.9,20.7,29.85,NW,304,7.0,19.0,77,0.00,,---,0.23,0.00,VWS V14.01,2013-01-30 23:21:00,
2013-01-30 17:26:00,26.8,20.3,29.85,WNW,283,8.0,9.0,76,0.00,,---,0.23,0.00,VWS V14.01,2013-01-30 23:26:00,
2013-01-30 17:31:00,26.8,20.6,29.86,West,261,4.0,11.0,77,0.00,,---,0.23,0.00,VWS V14.01,2013-01-30 23:31:00,
2013-01-30 17:36:00,26.8,20.6,29.86,West,274,6.0,12.0,77,0.00,,---,0.23,0.00,VWS V14.01,2013-01-30 23:36:00,
2013-01-30 17:41:00,26.7,20.2,29.86,WNW,294,10.0,11.0,76,0.00,,---,0.23,0.00,VWS V14.01,2013-01-30 23:41:00,
2013-01-30 17:46:00,26.7,19.9,29.87,West,273,6.0,7.0,75,0.00,,---,0.23,0.00,VWS V14.01,2013-01-30 23:46:00,
2013-01-30 17:51:00,26.7,20.2,29.87,WNW,295,4.0,4.0,76,0.00,,---,0.23,0.00,VWS V14.01,2013-01-30 23:51:00,
2013-01-30 17:56:00,26.7,20.2,29.88,WNW,287,5.0,12.0,76,0.00,,---,0.23,0.00,VWS V14.01,2013-01-30 23:56:00,
2013-01-30 18:01:00,26.7,20.2,29.88,WNW,292,5.0,7.0,76,0.00,,---,0.23,0.00,VWS V14.01,2013-01-31 00:01:00,
2013-01-30 18:06:00,26.6,20.1,29.88,West,275,6.0,10.0,76,0.00,,---,0.23,0.00,VWS V14.01,2013-01-31 00:06:00,
2013-01-30 18:11:00,26.6,20.1,29.88,West,269,10.0,20.0,76,0.00,,---,0.23,0.00,VWS V14.01,2013-01-31 00:11:00,
2013-01-30 18:16:00,26.5,20.0,29.89,WSW,252,10.0,19.0,76,0.00,,---,0.23,0.00,VWS V14.01,2013-01-31 00:16:00,
2013-01-30 18:21:00,26.5,19.7,29.89,West,281,4.0,12.0,75,0.00,,---,0.23,0.00,VWS V14.01,2013-01-31 00:21:00,
2013-01-30 18:26:00,26.4,19.9,29.89,WNW,294,12.0,12.0,76,0.00,,---,0.23,0.00,VWS V14.01,2013-01-31 00:26:00,
2013-01-30 18:31:00,26.4,19.9,29.89,WNW,298,9.0,14.0,76,0.00,,---,0.23,0.00,VWS V14.01,2013-01-31 00:31:00,
2013-01-30 18:36:00,26.4,19.9,29.90,West,273,6.0,10.0,76,0.00,,---,0.23,0.00,VWS V14.01,2013-01-31 00:36:00,
2013-01-30 18:41:00,26.4,19.9,29.90,West,261,14.0,18.0,76,0.00,,---,0.23,0.00,VWS V14.01,2013-01-31 00:41:00,
2013-01-30 18:46:00,26.4,19.9,29.90,West,263,5.0,6.0,76,0.00,,---,0.23,0.00,VWS V14.01,2013-01-31 00:46:00,
2013-01-30 18:51:00,26.5,20.0,29.90,West,273,7.0,7.0,76,0.00,,---,0.23,0.00,VWS V14.01,2013-01-31 00:51:00,
2013-01-30 18:56:00,26.5,20.0,29.90,West,269,7.0,13.0,76,0.00,,---,0.23,0.00,VWS V14.01,2013-01-31 00:56:00,
2013-01-30 19:01:00,26.5,20.0,29.91,West,273,3.0,10.0,76,0.00,,---,0.23,0.00,VWS V14.01,2013-01-31 01:01:00,
2013-01-30 19:06:00,26.5,20.0,29.91,West,265,4.0,6.0,76,0.00,,---,0.23,0.00,VWS V14.01,2013-01-31 01:06:00,
2013-01-30 19:11:00,26.5,20.3,29.92,West,264,7.0,7.0,77,0.00,,---,0.23,0.00,VWS V14.01,2013-01-31 01:11:00,
2013-01-30 19:16:00,26.5,20.3,29.92,WSW,258,7.0,16.0,77,0.00,,---,0.23,0.00,VWS V14.01,2013-01-31 01:16:00,
2013-01-30 19:21:00,26.5,20.3,29.92,West,276,5.0,6.0,77,0.00,,---,0.23,0.00,VWS V14.01,2013-01-31 01:21:00,
2013-01-30 19:26:00,26.5,19.7,29.92,West,274,8.0,10.0,75,0.00,,---,0.23,0.00,VWS V14.01,2013-01-31 01:26:00,
2013-01-30 19:31:00,26.5,19.4,29.93,West,267,7.0,7.0,74,0.00,,---,0.23,0.00,VWS V14.01,2013-01-31 01:31:00,
2013-01-30 19:36:00,26.5,19.0,29.93,West,273,4.0,5.0,73,0.00,,---,0.23,0.00,VWS V14.01,2013-01-31 01:36:00,
2013-01-30 19:41:00,26.4,18.6,29.93,West,264,5.0,11.0,72,0.00,,---,0.23,0.00,VWS V14.01,2013-01-31 01:41:00,
2013-01-30 19:46:00,26.3,18.2,29.93,NW,305,8.0,10.0,71,0.00,,---,0.23,0.00,VWS V14.01,2013-01-31 01:46:00,
2013-01-30 19:51:00,26.3,18.5,29.94,WNW,290,2.0,3.0,72,0.00,,---,0.23,0.00,VWS V14.01,2013-01-31 01:51:00,
2013-01-30 19:56:00,26.2,18.1,29.94,NW,307,3.0,9.0,71,0.00,,---,0.23,0.00,VWS V14.01,2013-01-31 01:56:00,
2013-01-30 20:01:00,26.1,17.7,29.94,NW,317,4.0,9.0,70,0.00,,---,0.23,0.00,VWS V14.01,2013-01-31 02:01:00,
2013-01-30 20:06:00,26.0,17.9,29.94,WNW,293,6.0,6.0,71,0.00,,---,0.23,0.00,VWS V14.01,2013-01-31 02:06:00,
2013-01-30 20:11:00,25.9,17.8,29.94,WNW,298,6.0,10.0,71,0.00,,---,0.23,0.00,VWS V14.01,2013-01-31 02:11:00,
2013-01-30 20:16:00,25.8,18.0,29.95,West,280,5.0,5.0,72,0.00,,---,0.23,0.00,VWS V14.01,2013-01-31 02:16:00,
2013-01-30 20:21:00,25.8,18.4,29.95,West,277,7.0,15.0,73,0.00,,---,0.23,0.00,VWS V14.01,2013-01-31 02:21:00,
2013-01-30 20:26:00,25.7,18.3,29.95,WNW,287,2.0,5.0,73,0.00,,---,0.23,0.00,VWS V14.01,2013-01-31 02:26:00,
2013-01-30 20:31:00,25.8,18.7,29.95,WNW,282,5.0,9.0,74,0.00,,---,0.23,0.00,VWS V14.01,2013-01-31 02:31:00,
2013-01-30 20:36:00,25.7,18.9,29.96,West,268,7.0,12.0,75,0.00,,---,0.23,0.00,VWS V14.01,2013-01-31 02:36:00,
2013-01-30 20:41:00,25.7,18.6,29.96,West,267,15.0,18.0,74,0.00,,---,0.23,0.00,VWS V14.01,2013-01-31 02:41:00,
2013-01-30 20:46:00,25.6,18.2,29.97,NNW,327,7.0,10.0,73,0.00,,---,0.23,0.00,VWS V14.01,2013-01-31 02:46:00,
2013-01-30 20:51:00,25.5,18.1,29.96,NW,306,3.0,5.0,73,0.00,,---,0.23,0.00,VWS V14.01,2013-01-31 02:51:00,
2013-01-30 20:56:00,25.5,18.1,29.97,WNW,288,5.0,10.0,73,0.00,,---,0.23,0.00,VWS V14.01,2013-01-31 02:56:00,
2013-01-30 21:01:00,25.3,17.5,29.97,WNW,290,2.0,5.0,72,0.00,,---,0.23,0.00,VWS V14.01,2013-01-31 03:01:00,
2013-01-30 21:06:00,25.2,17.5,29.97,NW,308,4.0,13.0,72,0.00,,---,0.23,0.00,VWS V14.01,2013-01-31 03:06:00,
2013-01-30 21:11:00,25.2,17.5,29.98,WNW,294,4.0,14.0,72,0.00,,---,0.23,0.00,VWS V14.01,2013-01-31 03:11:00,
2013-01-30 21:16:00,25.2,17.8,29.98,WNW,292,5.0,5.0,73,0.00,,---,0.23,0.00,VWS V14.01,2013-01-31 03:16:00,
2013-01-30 21:21:00,25.1,17.7,29.98,WNW,298,3.0,7.0,73,0.00,,---,0.23,0.00,VWS V14.01,2013-01-31 03:21:00,
2013-01-30 21:26:00,25.1,17.4,29.98,NW,304,5.0,5.0,72,0.00,,---,0.23,0.00,VWS V14.01,2013-01-31 03:26:00,
2013-01-30 21:31:00,25.1,17.4,29.99,WNW,300,6.0,10.0,72,0.00,,---,0.23,0.00,VWS V14.01,2013-01-31 03:31:00,
2013-01-30 21:36:00,25.1,17.7,29.99,West,268,5.0,5.0,73,0.00,,---,0.23,0.00,VWS V14.01,2013-01-31 03:36:00,
2013-01-30 21:41:00,25.2,18.1,29.99,West,279,3.0,4.0,74,0.00,,---,0.23,0.00,VWS V14.01,2013-01-31 03:41:00,
2013-01-30 21:46:00,25.2,18.4,29.99,WNW,284,0.0,5.0,75,0.00,,---,0.23,0.00,VWS V14.01,2013-01-31 03:46:00,
2013-01-30 21:51:00,25.2,18.1,30.00,WNW,290,9.0,11.0,74,0.00,,---,0.23,0.00,VWS V14.01,2013-01-31 03:51:00,
2013-01-30 21:56:00,25.2,18.1,30.00,West,265,5.0,7.0,74,0.00,,---,0.23,0.00,VWS V14.01,2013-01-31 03:56:00,
2013-01-30 22:01:00,25.1,18.0,30.00,WNW,301,7.0,7.0,74,0.00,,---,0.23,0.00,VWS V14.01,2013-01-31 04:01:00,
2013-01-30 22:06:00,25.0,17.6,30.00,West,280,5.0,9.0,73,0.00,,---,0.23,0.00,VWS V14.01,2013-01-31 04:06:00,
2013-01-30 22:11:00,25.0,17.3,30.00,WNW,300,3.0,10.0,72,0.00,,---,0.23,0.00,VWS V14.01,2013-01-31 04:11:00,
2013-01-30 22:16:00,24.9,17.2,30.00,West,280,6.0,7.0,72,0.00,,---,0.23,0.00,VWS V14.01,2013-01-31 04:16:00,
2013-01-30 22:21:00,25.0,17.6,30.00,West,270,8.0,9.0,73,0.00,,---,0.23,0.00,VWS V14.01,2013-01-31 04:21:00,
2013-01-30 22:26:00,25.0,17.6,30.00,West,264,3.0,5.0,73,0.00,,---,0.23,0.00,VWS V14.01,2013-01-31 04:26:00,
2013-01-30 22:31:00,25.0,17.6,30.00,WNW,302,4.0,6.0,73,0.00,,---,0.23,0.00,VWS V14.01,2013-01-31 04:31:00,
2013-01-30 22:36:00,24.9,17.2,30.01,West,273,4.0,5.0,72,0.00,,---,0.23,0.00,VWS V14.01,2013-01-31 04:36:00,
2013-01-30 22:41:00,24.8,17.1,30.01,West,280,1.0,2.0,72,0.00,,---,0.23,0.00,VWS V14.01,2013-01-31 04:41:00,
2013-01-30 22:46:00,24.8,17.1,30.01,WNW,292,5.0,5.0,72,0.00,,---,0.23,0.00,VWS V14.01,2013-01-31 04:46:00,
2013-01-30 22:51:00,24.7,17.3,30.01,West,277,3.0,3.0,73,0.00,,---,0.23,0.00,VWS V14.01,2013-01-31 04:51:00,
2013-01-30 22:56:00,24.7,17.3,30.01,West,272,4.0,4.0,73,0.00,,---,0.23,0.00,VWS V14.01,2013-01-31 04:56:00,
2013-01-30 23:00:00,24.8,17.4,30.01,West,272,0.0,4.0,73,0.00,,---,0.23,0.00,VWS V14.01,2013-01-31 05:00:00,
2013-01-30 23:05:00,24.8,17.7,30.01,WSW,250,8.0,10.0,74,0.00,,---,0.23,0.00,VWS V14.01,2013-01-31 05:05:00,
2013-01-30 23:10:00,24.8,17.4,30.01,West,259,9.0,13.0,73,0.00,,---,0.23,0.00,VWS V14.01,2013-01-31 05:10:00,
2013-01-30 23:15:00,24.9,17.5,30.01,WNW,284,4.0,13.0,73,0.00,,---,0.23,0.00,VWS V14.01,2013-01-31 05:15:00,
2013-01-30 23:20:00,25.0,17.6,30.01,West,265,6.0,11.0,73,0.00,,---,0.23,0.00,VWS V14.01,2013-01-31 05:20:00,
2013-01-30 23:25:00,25.1,17.7,30.01,West,271,4.0,11.0,73,0.00,,---,0.23,0.00,VWS V14.01,2013-01-31 05:25:00,
2013-01-30 23:30:00,25.2,17.8,30.02,West,268,6.0,11.0,73,0.00,,---,0.23,0.00,VWS V14.01,2013-01-31 05:30:00,
2013-01-30 23:35:00,25.3,17.9,30.01,West,271,8.0,13.0,73,0.00,,---,0.23,0.00,VWS V14.01,2013-01-31 05:35:00,
2013-01-30 23:40:00,25.4,17.6,30.02,WSW,244,11.0,11.0,72,0.00,,---,0.23,0.00,VWS V14.01,2013-01-31 05:40:00,
2013-01-30 23:45:00,25.4,17.6,30.01,WSW,247,13.0,14.0,72,0.00,,---,0.23,0.00,VWS V14.01,2013-01-31 05:45:00,
2013-01-30 23:50:00,25.5,17.4,30.01,West,281,1.0,12.0,71,0.00,,---,0.23,0.00,VWS V14.01,2013-01-31 05:50:00,
2013-01-30 23:55:00,25.6,17.5,30.02,West,273,6.0,8.0,71,0.00,,---,0.23,0.00,VWS V14.01,2013-01-31 05:55:00,